sensor_id;sensor_type;location;lat;lon;timestamp;P1;durP1;ratioP1;P2;durP2;ratioP2
71148;SDS011;59072;42.144;25.200;2023-07-13T00:01:13;13.02;;;8.73;;
71148;SDS011;59072;42.144;25.200;2023-07-13T00:03:39;12.83;;;8.63;;
71148;SDS011;59072;42.144;25.200;2023-07-13T00:06:06;12.53;;;8.90;;
71148;SDS011;59072;42.144;25.200;2023-07-13T00:08:32;28.40;;;22.20;;
71148;SDS011;59072;42.144;25.200;2023-07-13T00:10:59;14.40;;;10.15;;
71148;SDS011;59072;42.144;25.200;2023-07-13T00:13:25;12.85;;;8.38;;
71148;SDS011;59072;42.144;25.200;2023-07-13T00:15:50;11.70;;;9.15;;
71148;SDS011;59072;42.144;25.200;2023-07-13T00:18:16;11.27;;;8.73;;
71148;SDS011;59072;42.144;25.200;2023-07-13T00:20:44;12.10;;;9.05;;
71148;SDS011;59072;42.144;25.200;2023-07-13T00:25:34;14.27;;;10.00;;
71148;SDS011;59072;42.144;25.200;2023-07-13T00:28:00;12.70;;;9.35;;
71148;SDS011;59072;42.144;25.200;2023-07-13T00:30:25;14.27;;;9.52;;
71148;SDS011;59072;42.144;25.200;2023-07-13T00:32:51;13.98;;;9.30;;
71148;SDS011;59072;42.144;25.200;2023-07-13T00:35:17;13.55;;;10.10;;
71148;SDS011;59072;42.144;25.200;2023-07-13T00:37:42;12.25;;;9.05;;
71148;SDS011;59072;42.144;25.200;2023-07-13T00:40:09;13.23;;;9.98;;
71148;SDS011;59072;42.144;25.200;2023-07-13T00:42:37;12.20;;;9.88;;
71148;SDS011;59072;42.144;25.200;2023-07-13T00:47:40;14.13;;;10.30;;
71148;SDS011;59072;42.144;25.200;2023-07-13T00:50:09;11.30;;;10.07;;
71148;SDS011;59072;42.144;25.200;2023-07-13T00:52:41;11.40;;;9.98;;
71148;SDS011;59072;42.144;25.200;2023-07-13T00:55:12;13.90;;;11.13;;
71148;SDS011;59072;42.144;25.200;2023-07-13T00:57:39;15.80;;;11.18;;
71148;SDS011;59072;42.144;25.200;2023-07-13T01:00:10;13.73;;;10.63;;
71148;SDS011;59072;42.144;25.200;2023-07-13T01:02:41;13.32;;;10.65;;
71148;SDS011;59072;42.144;25.200;2023-07-13T01:05:13;14.25;;;11.10;;
71148;SDS011;59072;42.144;25.200;2023-07-13T01:07:40;13.02;;;10.60;;
71148;SDS011;59072;42.144;25.200;2023-07-13T01:10:07;14.50;;;10.35;;
71148;SDS011;59072;42.144;25.200;2023-07-13T01:12:33;14.07;;;11.23;;
71148;SDS011;59072;42.144;25.200;2023-07-13T01:14:59;16.25;;;11.23;;
71148;SDS011;59072;42.144;25.200;2023-07-13T01:17:28;12.35;;;9.90;;
71148;SDS011;59072;42.144;25.200;2023-07-13T01:19:58;13.57;;;10.77;;
71148;SDS011;59072;42.144;25.200;2023-07-13T01:22:23;16.67;;;11.00;;
71148;SDS011;59072;42.144;25.200;2023-07-13T01:24:54;15.60;;;11.60;;
71148;SDS011;59072;42.144;25.200;2023-07-13T01:27:25;23.23;;;12.20;;
71148;SDS011;59072;42.144;25.200;2023-07-13T01:29:51;12.52;;;11.07;;
71148;SDS011;59072;42.144;25.200;2023-07-13T01:34:56;15.77;;;11.98;;
71148;SDS011;59072;42.144;25.200;2023-07-13T01:37:22;14.93;;;11.40;;
71148;SDS011;59072;42.144;25.200;2023-07-13T01:39:53;14.75;;;12.80;;
71148;SDS011;59072;42.144;25.200;2023-07-13T01:42:18;17.50;;;12.35;;
71148;SDS011;59072;42.144;25.200;2023-07-13T01:44:46;15.45;;;12.40;;
71148;SDS011;59072;42.144;25.200;2023-07-13T01:47:12;17.20;;;13.05;;
71148;SDS011;59072;42.144;25.200;2023-07-13T01:49:37;18.63;;;12.07;;
71148;SDS011;59072;42.144;25.200;2023-07-13T01:52:03;17.08;;;12.43;;
71148;SDS011;59072;42.144;25.200;2023-07-13T01:54:28;15.32;;;12.70;;
71148;SDS011;59072;42.144;25.200;2023-07-13T01:56:56;16.67;;;12.77;;
71148;SDS011;59072;42.144;25.200;2023-07-13T01:59:22;17.08;;;12.88;;
71148;SDS011;59072;42.144;25.200;2023-07-13T02:01:47;15.85;;;12.38;;
71148;SDS011;59072;42.144;25.200;2023-07-13T02:04:15;15.35;;;12.10;;
71148;SDS011;59072;42.144;25.200;2023-07-13T02:06:41;15.88;;;12.77;;
71148;SDS011;59072;42.144;25.200;2023-07-13T02:09:06;18.85;;;13.23;;
71148;SDS011;59072;42.144;25.200;2023-07-13T02:11:35;21.67;;;12.90;;
71148;SDS011;59072;42.144;25.200;2023-07-13T02:14:00;16.70;;;12.75;;
71148;SDS011;59072;42.144;25.200;2023-07-13T02:16:27;19.65;;;12.30;;
71148;SDS011;59072;42.144;25.200;2023-07-13T02:18:52;17.38;;;13.00;;
71148;SDS011;59072;42.144;25.200;2023-07-13T02:21:18;15.40;;;12.73;;
71148;SDS011;59072;42.144;25.200;2023-07-13T02:23:44;16.85;;;13.20;;
71148;SDS011;59072;42.144;25.200;2023-07-13T02:26:09;17.33;;;13.05;;
71148;SDS011;59072;42.144;25.200;2023-07-13T02:28:35;19.55;;;12.80;;
71148;SDS011;59072;42.144;25.200;2023-07-13T02:31:11;18.23;;;12.63;;
71148;SDS011;59072;42.144;25.200;2023-07-13T02:33:39;18.15;;;12.13;;
71148;SDS011;59072;42.144;25.200;2023-07-13T02:36:07;20.13;;;13.02;;
71148;SDS011;59072;42.144;25.200;2023-07-13T02:38:35;18.02;;;13.05;;
71148;SDS011;59072;42.144;25.200;2023-07-13T02:41:05;17.05;;;12.20;;
71148;SDS011;59072;42.144;25.200;2023-07-13T02:43:37;34.35;;;15.25;;
71148;SDS011;59072;42.144;25.200;2023-07-13T02:46:03;26.60;;;14.57;;
71148;SDS011;59072;42.144;25.200;2023-07-13T02:48:35;24.10;;;15.07;;
71148;SDS011;59072;42.144;25.200;2023-07-13T02:51:01;22.73;;;15.88;;
71148;SDS011;59072;42.144;25.200;2023-07-13T02:53:27;18.05;;;13.98;;
71148;SDS011;59072;42.144;25.200;2023-07-13T02:55:55;20.13;;;13.90;;
71148;SDS011;59072;42.144;25.200;2023-07-13T02:58:21;17.17;;;13.48;;
71148;SDS011;59072;42.144;25.200;2023-07-13T03:00:47;17.67;;;12.60;;
71148;SDS011;59072;42.144;25.200;2023-07-13T03:03:15;16.30;;;13.20;;
71148;SDS011;59072;42.144;25.200;2023-07-13T03:05:41;15.65;;;12.45;;
71148;SDS011;59072;42.144;25.200;2023-07-13T03:08:09;17.50;;;12.65;;
71148;SDS011;59072;42.144;25.200;2023-07-13T03:10:35;16.98;;;13.60;;
71148;SDS011;59072;42.144;25.200;2023-07-13T03:13:01;15.80;;;11.30;;
71148;SDS011;59072;42.144;25.200;2023-07-13T03:15:27;16.65;;;12.00;;
71148;SDS011;59072;42.144;25.200;2023-07-13T03:17:52;15.93;;;12.27;;
71148;SDS011;59072;42.144;25.200;2023-07-13T03:20:18;21.02;;;13.00;;
71148;SDS011;59072;42.144;25.200;2023-07-13T03:22:45;17.90;;;12.80;;
71148;SDS011;59072;42.144;25.200;2023-07-13T03:25:10;16.80;;;12.50;;
71148;SDS011;59072;42.144;25.200;2023-07-13T03:27:38;17.98;;;13.13;;
71148;SDS011;59072;42.144;25.200;2023-07-13T03:30:04;14.60;;;12.10;;
71148;SDS011;59072;42.144;25.200;2023-07-13T03:32:31;18.17;;;13.35;;
71148;SDS011;59072;42.144;25.200;2023-07-13T03:35:06;21.23;;;13.48;;
71148;SDS011;59072;42.144;25.200;2023-07-13T03:37:33;18.10;;;14.48;;
71148;SDS011;59072;42.144;25.200;2023-07-13T03:39:59;21.77;;;14.18;;
71148;SDS011;59072;42.144;25.200;2023-07-13T03:42:24;17.73;;;14.68;;
71148;SDS011;59072;42.144;25.200;2023-07-13T03:44:50;19.55;;;14.70;;
71148;SDS011;59072;42.144;25.200;2023-07-13T03:47:17;18.45;;;14.10;;
71148;SDS011;59072;42.144;25.200;2023-07-13T03:49:45;19.90;;;14.20;;
71148;SDS011;59072;42.144;25.200;2023-07-13T03:52:11;17.40;;;14.90;;
71148;SDS011;59072;42.144;25.200;2023-07-13T03:54:36;15.38;;;13.30;;
71148;SDS011;59072;42.144;25.200;2023-07-13T03:57:02;16.30;;;13.20;;
71148;SDS011;59072;42.144;25.200;2023-07-13T03:59:27;18.20;;;13.45;;
71148;SDS011;59072;42.144;25.200;2023-07-13T04:01:53;18.20;;;14.20;;
71148;SDS011;59072;42.144;25.200;2023-07-13T04:04:20;26.27;;;15.23;;
71148;SDS011;59072;42.144;25.200;2023-07-13T04:06:45;23.15;;;14.43;;
71148;SDS011;59072;42.144;25.200;2023-07-13T04:09:11;17.02;;;14.55;;
71148;SDS011;59072;42.144;25.200;2023-07-13T04:11:36;18.70;;;13.85;;
71148;SDS011;59072;42.144;25.200;2023-07-13T04:14:02;16.90;;;14.10;;
71148;SDS011;59072;42.144;25.200;2023-07-13T04:16:27;21.40;;;13.93;;
71148;SDS011;59072;42.144;25.200;2023-07-13T04:18:54;21.92;;;13.15;;
71148;SDS011;59072;42.144;25.200;2023-07-13T04:21:24;18.95;;;14.75;;
71148;SDS011;59072;42.144;25.200;2023-07-13T04:23:50;17.80;;;15.02;;
71148;SDS011;59072;42.144;25.200;2023-07-13T04:26:16;20.73;;;15.63;;
71148;SDS011;59072;42.144;25.200;2023-07-13T04:28:42;19.17;;;15.15;;
71148;SDS011;59072;42.144;25.200;2023-07-13T04:31:07;28.50;;;17.48;;
71148;SDS011;59072;42.144;25.200;2023-07-13T04:33:32;34.30;;;17.33;;
71148;SDS011;59072;42.144;25.200;2023-07-13T04:35:58;18.90;;;14.73;;
71148;SDS011;59072;42.144;25.200;2023-07-13T04:38:28;17.85;;;14.10;;
71148;SDS011;59072;42.144;25.200;2023-07-13T04:40:56;20.23;;;15.50;;
71148;SDS011;59072;42.144;25.200;2023-07-13T04:45:50;24.60;;;17.08;;
71148;SDS011;59072;42.144;25.200;2023-07-13T04:48:18;21.05;;;16.42;;
71148;SDS011;59072;42.144;25.200;2023-07-13T04:50:44;18.05;;;15.13;;
71148;SDS011;59072;42.144;25.200;2023-07-13T04:53:11;27.88;;;16.17;;
71148;SDS011;59072;42.144;25.200;2023-07-13T04:55:36;24.85;;;15.73;;
71148;SDS011;59072;42.144;25.200;2023-07-13T04:58:03;19.90;;;15.25;;
71148;SDS011;59072;42.144;25.200;2023-07-13T05:00:29;18.25;;;14.52;;
71148;SDS011;59072;42.144;25.200;2023-07-13T05:02:55;19.52;;;15.07;;
71148;SDS011;59072;42.144;25.200;2023-07-13T05:05:25;20.00;;;15.30;;
71148;SDS011;59072;42.144;25.200;2023-07-13T05:07:52;18.73;;;14.90;;
71148;SDS011;59072;42.144;25.200;2023-07-13T05:10:18;21.77;;;16.17;;
71148;SDS011;59072;42.144;25.200;2023-07-13T05:12:44;26.20;;;16.92;;
71148;SDS011;59072;42.144;25.200;2023-07-13T05:15:10;19.63;;;14.32;;
71148;SDS011;59072;42.144;25.200;2023-07-13T05:17:38;19.90;;;14.68;;
71148;SDS011;59072;42.144;25.200;2023-07-13T05:20:06;17.75;;;15.20;;
71148;SDS011;59072;42.144;25.200;2023-07-13T05:22:32;20.67;;;15.50;;
71148;SDS011;59072;42.144;25.200;2023-07-13T05:25:00;21.13;;;15.77;;
71148;SDS011;59072;42.144;25.200;2023-07-13T05:27:29;20.48;;;15.88;;
71148;SDS011;59072;42.144;25.200;2023-07-13T05:29:55;21.13;;;14.82;;
71148;SDS011;59072;42.144;25.200;2023-07-13T05:32:21;18.80;;;14.20;;
71148;SDS011;59072;42.144;25.200;2023-07-13T05:34:49;18.40;;;15.40;;
71148;SDS011;59072;42.144;25.200;2023-07-13T05:37:15;21.92;;;15.18;;
71148;SDS011;59072;42.144;25.200;2023-07-13T05:39:40;18.17;;;14.63;;
71148;SDS011;59072;42.144;25.200;2023-07-13T05:42:06;24.38;;;15.13;;
71148;SDS011;59072;42.144;25.200;2023-07-13T05:44:31;19.45;;;14.38;;
71148;SDS011;59072;42.144;25.200;2023-07-13T05:46:57;26.52;;;14.63;;
71148;SDS011;59072;42.144;25.200;2023-07-13T05:49:22;22.98;;;14.18;;
71148;SDS011;59072;42.144;25.200;2023-07-13T05:51:48;18.05;;;12.32;;
71148;SDS011;59072;42.144;25.200;2023-07-13T05:54:14;17.98;;;14.32;;
71148;SDS011;59072;42.144;25.200;2023-07-13T05:56:39;18.70;;;13.98;;
71148;SDS011;59072;42.144;25.200;2023-07-13T05:59:12;17.55;;;13.45;;
71148;SDS011;59072;42.144;25.200;2023-07-13T06:01:37;18.50;;;13.48;;
71148;SDS011;59072;42.144;25.200;2023-07-13T06:04:03;16.45;;;12.68;;
71148;SDS011;59072;42.144;25.200;2023-07-13T06:06:29;16.48;;;12.65;;
71148;SDS011;59072;42.144;25.200;2023-07-13T06:08:54;15.82;;;12.38;;
71148;SDS011;59072;42.144;25.200;2023-07-13T06:11:21;15.10;;;12.90;;
71148;SDS011;59072;42.144;25.200;2023-07-13T06:13:52;14.43;;;12.52;;
71148;SDS011;59072;42.144;25.200;2023-07-13T06:16:19;15.63;;;12.20;;
71148;SDS011;59072;42.144;25.200;2023-07-13T06:18:44;16.05;;;12.98;;
71148;SDS011;59072;42.144;25.200;2023-07-13T06:21:22;17.10;;;12.60;;
71148;SDS011;59072;42.144;25.200;2023-07-13T06:23:49;14.45;;;12.38;;
71148;SDS011;59072;42.144;25.200;2023-07-13T06:28:42;16.13;;;13.43;;
71148;SDS011;59072;42.144;25.200;2023-07-13T06:31:09;16.88;;;13.15;;
71148;SDS011;59072;42.144;25.200;2023-07-13T06:33:35;18.05;;;12.68;;
71148;SDS011;59072;42.144;25.200;2023-07-13T06:36:02;15.00;;;12.52;;
71148;SDS011;59072;42.144;25.200;2023-07-13T06:38:29;21.92;;;12.95;;
71148;SDS011;59072;42.144;25.200;2023-07-13T06:40:57;17.65;;;12.75;;
71148;SDS011;59072;42.144;25.200;2023-07-13T06:43:22;16.88;;;12.38;;
71148;SDS011;59072;42.144;25.200;2023-07-13T06:45:49;14.90;;;11.20;;
71148;SDS011;59072;42.144;25.200;2023-07-13T06:48:16;14.65;;;11.85;;
71148;SDS011;59072;42.144;25.200;2023-07-13T06:50:44;14.20;;;11.95;;
71148;SDS011;59072;42.144;25.200;2023-07-13T06:53:11;13.88;;;11.68;;
71148;SDS011;59072;42.144;25.200;2023-07-13T06:55:37;16.00;;;11.65;;
71148;SDS011;59072;42.144;25.200;2023-07-13T06:58:03;18.05;;;11.50;;
71148;SDS011;59072;42.144;25.200;2023-07-13T07:00:28;16.52;;;11.60;;
71148;SDS011;59072;42.144;25.200;2023-07-13T07:02:54;15.32;;;12.55;;
71148;SDS011;59072;42.144;25.200;2023-07-13T07:05:19;17.42;;;11.05;;
71148;SDS011;59072;42.144;25.200;2023-07-13T07:07:47;14.32;;;11.48;;
71148;SDS011;59072;42.144;25.200;2023-07-13T07:10:16;16.75;;;10.68;;
71148;SDS011;59072;42.144;25.200;2023-07-13T07:12:41;14.40;;;10.45;;
71148;SDS011;59072;42.144;25.200;2023-07-13T07:15:09;16.17;;;11.65;;
71148;SDS011;59072;42.144;25.200;2023-07-13T07:17:35;13.32;;;10.80;;
71148;SDS011;59072;42.144;25.200;2023-07-13T07:20:00;15.95;;;11.05;;
71148;SDS011;59072;42.144;25.200;2023-07-13T07:22:26;13.10;;;10.70;;
71148;SDS011;59072;42.144;25.200;2023-07-13T07:24:55;12.73;;;10.43;;
71148;SDS011;59072;42.144;25.200;2023-07-13T07:27:21;14.20;;;10.95;;
71148;SDS011;59072;42.144;25.200;2023-07-13T07:29:46;12.30;;;10.80;;
71148;SDS011;59072;42.144;25.200;2023-07-13T07:32:12;13.90;;;11.18;;
71148;SDS011;59072;42.144;25.200;2023-07-13T07:34:37;12.98;;;10.27;;
71148;SDS011;59072;42.144;25.200;2023-07-13T07:37:10;13.05;;;9.27;;
71148;SDS011;59072;42.144;25.200;2023-07-13T07:39:39;11.63;;;9.50;;
71148;SDS011;59072;42.144;25.200;2023-07-13T07:42:05;14.52;;;9.10;;
71148;SDS011;59072;42.144;25.200;2023-07-13T07:44:34;13.15;;;9.25;;
71148;SDS011;59072;42.144;25.200;2023-07-13T07:47:05;12.85;;;9.13;;
71148;SDS011;59072;42.144;25.200;2023-07-13T07:49:31;12.30;;;9.50;;
71148;SDS011;59072;42.144;25.200;2023-07-13T07:52:01;12.35;;;8.10;;
71148;SDS011;59072;42.144;25.200;2023-07-13T07:54:27;10.98;;;8.88;;
71148;SDS011;59072;42.144;25.200;2023-07-13T07:56:53;10.38;;;8.82;;
71148;SDS011;59072;42.144;25.200;2023-07-13T07:59:18;12.50;;;9.23;;
71148;SDS011;59072;42.144;25.200;2023-07-13T08:01:46;12.35;;;8.75;;
71148;SDS011;59072;42.144;25.200;2023-07-13T08:04:15;14.57;;;10.15;;
71148;SDS011;59072;42.144;25.200;2023-07-13T08:06:41;16.25;;;10.38;;
71148;SDS011;59072;42.144;25.200;2023-07-13T08:09:10;14.95;;;9.50;;
71148;SDS011;59072;42.144;25.200;2023-07-13T08:11:35;11.90;;;9.43;;
71148;SDS011;59072;42.144;25.200;2023-07-13T08:14:03;12.23;;;9.85;;
71148;SDS011;59072;42.144;25.200;2023-07-13T08:16:28;14.05;;;10.60;;
71148;SDS011;59072;42.144;25.200;2023-07-13T08:18:57;13.20;;;10.32;;
71148;SDS011;59072;42.144;25.200;2023-07-13T08:21:23;12.68;;;10.25;;
71148;SDS011;59072;42.144;25.200;2023-07-13T08:23:49;14.68;;;10.70;;
71148;SDS011;59072;42.144;25.200;2023-07-13T08:26:14;12.52;;;11.00;;
71148;SDS011;59072;42.144;25.200;2023-07-13T08:28:40;14.60;;;10.68;;
71148;SDS011;59072;42.144;25.200;2023-07-13T08:31:08;13.15;;;10.13;;
71148;SDS011;59072;42.144;25.200;2023-07-13T08:33:35;12.45;;;10.13;;
71148;SDS011;59072;42.144;25.200;2023-07-13T08:36:03;14.50;;;10.73;;
71148;SDS011;59072;42.144;25.200;2023-07-13T08:38:30;12.80;;;10.50;;
71148;SDS011;59072;42.144;25.200;2023-07-13T08:40:56;14.55;;;9.98;;
71148;SDS011;59072;42.144;25.200;2023-07-13T08:43:25;15.60;;;10.70;;
71148;SDS011;59072;42.144;25.200;2023-07-13T08:45:55;15.95;;;11.27;;
71148;SDS011;59072;42.144;25.200;2023-07-13T08:48:49;14.95;;;11.00;;
71148;SDS011;59072;42.144;25.200;2023-07-13T08:51:21;13.13;;;11.13;;
71148;SDS011;59072;42.144;25.200;2023-07-13T08:54:09;15.73;;;10.82;;
71148;SDS011;59072;42.144;25.200;2023-07-13T08:56:56;13.13;;;10.90;;
71148;SDS011;59072;42.144;25.200;2023-07-13T08:59:24;15.65;;;11.10;;
71148;SDS011;59072;42.144;25.200;2023-07-13T09:04:49;13.32;;;9.88;;
71148;SDS011;59072;42.144;25.200;2023-07-13T09:10:27;15.40;;;11.38;;
71148;SDS011;59072;42.144;25.200;2023-07-13T09:15:30;14.68;;;11.15;;
71148;SDS011;59072;42.144;25.200;2023-07-13T09:18:09;12.40;;;10.43;;
71148;SDS011;59072;42.144;25.200;2023-07-13T09:20:48;12.75;;;11.25;;
71148;SDS011;59072;42.144;25.200;2023-07-13T09:23:27;12.77;;;10.80;;
71148;SDS011;59072;42.144;25.200;2023-07-13T09:25:57;13.63;;;9.75;;
71148;SDS011;59072;42.144;25.200;2023-07-13T09:28:30;11.20;;;9.43;;
71148;SDS011;59072;42.144;25.200;2023-07-13T09:33:48;12.32;;;9.43;;
71148;SDS011;59072;42.144;25.200;2023-07-13T09:39:15;11.07;;;9.05;;
71148;SDS011;59072;42.144;25.200;2023-07-13T09:41:51;11.75;;;8.93;;
71148;SDS011;59072;42.144;25.200;2023-07-13T09:44:35;12.75;;;9.98;;
71148;SDS011;59072;42.144;25.200;2023-07-13T09:47:03;15.73;;;10.32;;
71148;SDS011;59072;42.144;25.200;2023-07-13T09:49:29;10.33;;;8.93;;
71148;SDS011;59072;42.144;25.200;2023-07-13T09:52:00;12.48;;;8.90;;
71148;SDS011;59072;42.144;25.200;2023-07-13T09:54:37;12.27;;;8.27;;
71148;SDS011;59072;42.144;25.200;2023-07-13T09:57:19;11.27;;;7.40;;
71148;SDS011;59072;42.144;25.200;2023-07-13T09:59:49;10.65;;;8.30;;
71148;SDS011;59072;42.144;25.200;2023-07-13T10:04:58;8.67;;;6.87;;
71148;SDS011;59072;42.144;25.200;2023-07-13T10:07:29;10.80;;;6.68;;
71148;SDS011;59072;42.144;25.200;2023-07-13T10:09:56;10.93;;;6.95;;
71148;SDS011;59072;42.144;25.200;2023-07-13T10:12:24;10.95;;;6.50;;
71148;SDS011;59072;42.144;25.200;2023-07-13T10:14:54;9.82;;;6.72;;
71148;SDS011;59072;42.144;25.200;2023-07-13T10:17:34;8.63;;;6.55;;
71148;SDS011;59072;42.144;25.200;2023-07-13T10:20:01;9.07;;;6.43;;
71148;SDS011;59072;42.144;25.200;2023-07-13T10:22:31;9.60;;;6.20;;
71148;SDS011;59072;42.144;25.200;2023-07-13T10:25:18;10.25;;;6.38;;
71148;SDS011;59072;42.144;25.200;2023-07-13T10:27:47;10.15;;;6.00;;
71148;SDS011;59072;42.144;25.200;2023-07-13T10:32:48;9.10;;;5.38;;
71148;SDS011;59072;42.144;25.200;2023-07-13T10:35:16;8.63;;;6.13;;
71148;SDS011;59072;42.144;25.200;2023-07-13T10:37:54;8.38;;;6.07;;
71148;SDS011;59072;42.144;25.200;2023-07-13T10:40:24;7.03;;;5.43;;
71148;SDS011;59072;42.144;25.200;2023-07-13T10:42:57;9.48;;;5.68;;
71148;SDS011;59072;42.144;25.200;2023-07-13T10:45:26;8.35;;;5.28;;
71148;SDS011;59072;42.144;25.200;2023-07-13T10:47:55;8.25;;;5.88;;
71148;SDS011;59072;42.144;25.200;2023-07-13T10:50:23;8.27;;;5.70;;
71148;SDS011;59072;42.144;25.200;2023-07-13T10:52:51;9.00;;;5.75;;
71148;SDS011;59072;42.144;25.200;2023-07-13T10:58:11;6.95;;;5.18;;
71148;SDS011;59072;42.144;25.200;2023-07-13T11:03:23;9.25;;;4.88;;
71148;SDS011;59072;42.144;25.200;2023-07-13T11:06:03;8.38;;;5.28;;
71148;SDS011;59072;42.144;25.200;2023-07-13T11:08:54;7.38;;;5.35;;
71148;SDS011;59072;42.144;25.200;2023-07-13T11:18:47;10.10;;;4.75;;
71148;SDS011;59072;42.144;25.200;2023-07-13T11:21:29;6.50;;;4.78;;
71148;SDS011;59072;42.144;25.200;2023-07-13T11:29:33;7.80;;;5.35;;
71148;SDS011;59072;42.144;25.200;2023-07-13T11:32:21;9.05;;;4.97;;
71148;SDS011;59072;42.144;25.200;2023-07-13T11:34:49;8.57;;;4.57;;
71148;SDS011;59072;42.144;25.200;2023-07-13T11:37:18;6.82;;;4.45;;
71148;SDS011;59072;42.144;25.200;2023-07-13T11:39:44;9.45;;;5.43;;
71148;SDS011;59072;42.144;25.200;2023-07-13T11:42:13;9.43;;;4.68;;
71148;SDS011;59072;42.144;25.200;2023-07-13T11:44:45;8.57;;;4.60;;
71148;SDS011;59072;42.144;25.200;2023-07-13T11:47:20;7.78;;;4.55;;
71148;SDS011;59072;42.144;25.200;2023-07-13T11:49:53;7.85;;;4.65;;
71148;SDS011;59072;42.144;25.200;2023-07-13T11:52:22;8.52;;;4.72;;
71148;SDS011;59072;42.144;25.200;2023-07-13T11:55:01;6.90;;;4.00;;
71148;SDS011;59072;42.144;25.200;2023-07-13T11:57:36;8.68;;;4.72;;
71148;SDS011;59072;42.144;25.200;2023-07-13T12:00:13;7.13;;;4.45;;
71148;SDS011;59072;42.144;25.200;2023-07-13T12:02:43;8.98;;;4.63;;
71148;SDS011;59072;42.144;25.200;2023-07-13T12:05:11;7.40;;;4.28;;
71148;SDS011;59072;42.144;25.200;2023-07-13T12:07:40;9.45;;;4.60;;
71148;SDS011;59072;42.144;25.200;2023-07-13T12:12:37;6.93;;;4.28;;
71148;SDS011;59072;42.144;25.200;2023-07-13T12:15:10;9.98;;;4.35;;
71148;SDS011;59072;42.144;25.200;2023-07-13T12:20:09;7.13;;;4.40;;
71148;SDS011;59072;42.144;25.200;2023-07-13T12:22:48;6.65;;;4.38;;
71148;SDS011;59072;42.144;25.200;2023-07-13T12:25:18;7.55;;;4.55;;
71148;SDS011;59072;42.144;25.200;2023-07-13T12:27:48;8.82;;;4.22;;
71148;SDS011;59072;42.144;25.200;2023-07-13T12:30:36;9.20;;;4.15;;
71148;SDS011;59072;42.144;25.200;2023-07-13T12:37:58;9.30;;;4.70;;
71148;SDS011;59072;42.144;25.200;2023-07-13T12:40:27;11.60;;;5.47;;
71148;SDS011;59072;42.144;25.200;2023-07-13T12:43:15;8.95;;;5.03;;
71148;SDS011;59072;42.144;25.200;2023-07-13T12:48:48;9.50;;;4.93;;
71148;SDS011;59072;42.144;25.200;2023-07-13T12:51:15;8.23;;;5.22;;
71148;SDS011;59072;42.144;25.200;2023-07-13T12:53:42;7.47;;;4.50;;
71148;SDS011;59072;42.144;25.200;2023-07-13T12:56:16;9.40;;;4.90;;
71148;SDS011;59072;42.144;25.200;2023-07-13T12:58:45;11.93;;;4.85;;
71148;SDS011;59072;42.144;25.200;2023-07-13T13:01:15;8.27;;;5.13;;
71148;SDS011;59072;42.144;25.200;2023-07-13T13:03:46;8.93;;;4.97;;
71148;SDS011;59072;42.144;25.200;2023-07-13T13:06:33;11.63;;;4.93;;
71148;SDS011;59072;42.144;25.200;2023-07-13T13:09:01;11.85;;;5.53;;
71148;SDS011;59072;42.144;25.200;2023-07-13T13:11:29;9.35;;;4.72;;
71148;SDS011;59072;42.144;25.200;2023-07-13T13:13:56;12.63;;;5.40;;
71148;SDS011;59072;42.144;25.200;2023-07-13T13:16:23;10.95;;;4.88;;
71148;SDS011;59072;42.144;25.200;2023-07-13T13:18:52;10.65;;;5.00;;
71148;SDS011;59072;42.144;25.200;2023-07-13T13:21:27;10.20;;;5.10;;
71148;SDS011;59072;42.144;25.200;2023-07-13T13:23:52;12.75;;;5.47;;
71148;SDS011;59072;42.144;25.200;2023-07-13T13:26:18;8.40;;;5.07;;
71148;SDS011;59072;42.144;25.200;2023-07-13T13:28:44;8.40;;;4.93;;
71148;SDS011;59072;42.144;25.200;2023-07-13T13:31:11;8.23;;;5.03;;
71148;SDS011;59072;42.144;25.200;2023-07-13T13:33:38;8.18;;;4.90;;
71148;SDS011;59072;42.144;25.200;2023-07-13T13:36:14;8.68;;;5.03;;
71148;SDS011;59072;42.144;25.200;2023-07-13T13:38:42;8.13;;;4.57;;
71148;SDS011;59072;42.144;25.200;2023-07-13T13:41:11;13.05;;;5.53;;
71148;SDS011;59072;42.144;25.200;2023-07-13T13:43:38;9.57;;;5.18;;
71148;SDS011;59072;42.144;25.200;2023-07-13T13:46:11;12.73;;;5.20;;
71148;SDS011;59072;42.144;25.200;2023-07-13T13:48:40;13.25;;;5.15;;
71148;SDS011;59072;42.144;25.200;2023-07-13T13:51:12;11.30;;;5.10;;
71148;SDS011;59072;42.144;25.200;2023-07-13T13:53:48;10.05;;;4.93;;
71148;SDS011;59072;42.144;25.200;2023-07-13T13:56:15;10.30;;;4.95;;
71148;SDS011;59072;42.144;25.200;2023-07-13T13:58:42;9.65;;;4.93;;
71148;SDS011;59072;42.144;25.200;2023-07-13T14:01:20;10.87;;;5.33;;
71148;SDS011;59072;42.144;25.200;2023-07-13T14:03:48;11.07;;;4.65;;
71148;SDS011;59072;42.144;25.200;2023-07-13T14:06:19;10.07;;;5.13;;
71148;SDS011;59072;42.144;25.200;2023-07-13T14:08:47;13.05;;;5.07;;
71148;SDS011;59072;42.144;25.200;2023-07-13T14:11:16;12.55;;;5.28;;
71148;SDS011;59072;42.144;25.200;2023-07-13T14:13:44;10.77;;;5.00;;
71148;SDS011;59072;42.144;25.200;2023-07-13T14:16:17;12.07;;;5.10;;
71148;SDS011;59072;42.144;25.200;2023-07-13T14:18:44;12.10;;;5.03;;
71148;SDS011;59072;42.144;25.200;2023-07-13T14:21:11;10.98;;;5.10;;
71148;SDS011;59072;42.144;25.200;2023-07-13T14:23:43;12.70;;;5.78;;
71148;SDS011;59072;42.144;25.200;2023-07-13T14:26:13;12.98;;;6.32;;
71148;SDS011;59072;42.144;25.200;2023-07-13T14:28:44;14.88;;;6.10;;
71148;SDS011;59072;42.144;25.200;2023-07-13T14:31:12;16.65;;;12.00;;
71148;SDS011;59072;42.144;25.200;2023-07-13T14:33:46;12.45;;;5.72;;
71148;SDS011;59072;42.144;25.200;2023-07-13T14:36:27;10.27;;;4.82;;
71148;SDS011;59072;42.144;25.200;2023-07-13T14:38:55;12.50;;;5.60;;
71148;SDS011;59072;42.144;25.200;2023-07-13T14:41:22;13.02;;;5.15;;
71148;SDS011;59072;42.144;25.200;2023-07-13T14:43:53;12.05;;;4.70;;
71148;SDS011;59072;42.144;25.200;2023-07-13T14:46:30;11.10;;;4.65;;
71148;SDS011;59072;42.144;25.200;2023-07-13T14:49:07;13.30;;;5.43;;
71148;SDS011;59072;42.144;25.200;2023-07-13T14:51:51;12.35;;;5.25;;
71148;SDS011;59072;42.144;25.200;2023-07-13T14:54:24;11.52;;;5.30;;
71148;SDS011;59072;42.144;25.200;2023-07-13T14:56:49;9.10;;;4.70;;
71148;SDS011;59072;42.144;25.200;2023-07-13T14:59:41;14.07;;;5.22;;
71148;SDS011;59072;42.144;25.200;2023-07-13T15:05:47;9.30;;;4.93;;
71148;SDS011;59072;42.144;25.200;2023-07-13T15:08:02;13.57;;;5.30;;
71148;SDS011;59072;42.144;25.200;2023-07-13T15:10:56;16.02;;;5.60;;
71148;SDS011;59072;42.144;25.200;2023-07-13T15:13:25;12.57;;;4.63;;
71148;SDS011;59072;42.144;25.200;2023-07-13T15:15:51;9.10;;;4.70;;
71148;SDS011;59072;42.144;25.200;2023-07-13T15:18:20;9.98;;;4.35;;
71148;SDS011;59072;42.144;25.200;2023-07-13T15:20:49;9.45;;;5.15;;
71148;SDS011;59072;42.144;25.200;2023-07-13T15:23:21;10.82;;;4.63;;
71148;SDS011;59072;42.144;25.200;2023-07-13T15:25:47;9.43;;;5.32;;
71148;SDS011;59072;42.144;25.200;2023-07-13T15:30:48;14.38;;;5.13;;
71148;SDS011;59072;42.144;25.200;2023-07-13T15:33:20;12.88;;;5.00;;
71148;SDS011;59072;42.144;25.200;2023-07-13T15:35:49;13.60;;;5.40;;